Time;durP1;ratioP1;P1;durP2;ratioP2;P2;SDS_P1;SDS_P2;PMS_P1;PMS_P2;Temp;Humidity;BMP_temperature;BMP_pressure;BME280_temperature;BME280_humidity;BME280_pressure;Samples;Min_cycle;Max_cycle;Signal;HPM_P1;HPM_P2
2021/01/23 00:01:46;;;;;;;;;;;;;;;0.24;84.95;99817.56;1720718;82;20243;-65
2021/01/23 00:04:15;;;;;;;;;;;;;;;0.26;84.96;99817.49;1715994;82;21934;-65
2021/01/23 00:06:42;;;;;;;;;;;;;;;0.30;85.02;99824.70;1716554;83;20397;-66
2021/01/23 00:09:09;;;;;;;;;;;;;;;0.31;85.05;99830.28;1723522;83;20203;-65
2021/01/23 00:11:37;;;;;;;;;;;;;;;0.34;85.16;99824.48;1717440;82;20604;-65
2021/01/23 00:14:05;;;;;;;;;;;;;;;0.39;85.21;99816.48;1717626;82;20492;-66
2021/01/23 00:16:33;;;;;;;;;;;;;;;0.41;85.22;99809.00;1718626;83;21905;-65
2021/01/23 00:19:00;;;;;;;;;;;;;;;0.43;85.27;99813.66;1719247;83;20405;-65
2021/01/23 00:21:27;;;;;;;;;;;;;;;0.44;85.28;99810.14;1709557;83;20213;-65
2021/01/23 00:23:55;;;;;;;;;;;;;;;0.46;85.31;99808.77;1668978;84;20800;-65
2021/01/23 00:26:22;;;;;;;;;;;;;;;0.49;85.35;99817.28;1658887;85;20233;-65
2021/01/23 00:28:50;;;;;;;;;;;;;;;0.50;85.40;99818.97;1655716;86;22083;-65
2021/01/23 00:31:17;;;;;;;;;;;;;;;0.54;85.48;99811.86;1672063;86;20415;-65
2021/01/23 00:33:45;;;;;;;;;;;;;;;0.57;85.52;99819.03;1680052;83;20524;-65
2021/01/23 00:36:13;;;;;;;;;;;;;;;0.59;85.57;99816.85;1659834;86;20550;-66
2021/01/23 00:38:42;;;;;;;;;;;;;;;0.63;85.74;99811.42;1668217;85;20317;-65
2021/01/23 00:41:10;;;;;;;;;;;;;;;0.67;85.82;99820.74;1656502;84;22087;-66
2021/01/23 00:43:37;;;;;;;;;;;;;;;0.69;85.88;99808.54;1694183;84;21233;-65
2021/01/23 00:46:05;;;;;;;;;;;;;;;0.70;85.93;99807.62;1697153;84;20225;-65
2021/01/23 00:48:32;;;;;;;;;;;;;;;0.73;86.04;99821.77;1695134;84;20607;-65
2021/01/23 00:50:59;;;;;;;;;;;;;;;0.74;86.12;99813.05;1706069;82;20216;-65
2021/01/23 00:53:27;;;;;;;;;;;;;;;0.76;86.13;99815.56;1701577;84;22801;-65
2021/01/23 00:55:54;;;;;;;;;;;;;;;0.76;86.14;99814.27;1699416;84;20232;-65
2021/01/23 00:58:21;;;;;;;;;;;;;;;0.74;86.15;99822.14;1701436;84;20248;-65
2021/01/23 01:00:49;;;;;;;;;;;;;;;0.73;86.18;99819.16;1699878;83;20704;-65
2021/01/23 01:03:17;;;;;;;;;;;;;;;0.72;86.21;99825.73;1664884;85;20244;-65
2021/01/23 01:05:46;;;;;;;;;;;;;;;0.71;86.23;99819.70;1678069;84;22017;-65
2021/01/23 01:08:14;;;;;;;;;;;;;;;0.73;86.26;99818.32;1694965;84;20331;-65
2021/01/23 01:10:47;;;;;;;;;;;;;;;0.73;86.29;99819.16;1678529;83;20300;-65
2021/01/23 01:13:14;;;;;;;;;;;;;;;0.75;86.35;99812.59;1673321;84;21568;-65
2021/01/23 01:15:42;;;;;;;;;;;;;;;0.78;86.36;99815.06;1674013;84;20222;-65
2021/01/23 01:18:09;;;;;;;;;;;;;;;0.77;86.36;99809.02;1675736;84;21912;-65
2021/01/23 01:20:37;;;;;;;;;;;;;;;0.78;86.40;99805.50;1689575;83;20492;-65
2021/01/23 01:23:05;;;;;;;;;;;;;;;0.80;86.42;99812.77;1694921;83;20231;-65
2021/01/23 01:25:36;;;;;;;;;;;;;;;0.83;86.45;99807.86;1673976;84;20227;-65
2021/01/23 01:28:04;;;;;;;;;;;;;;;0.85;86.49;99800.36;1683799;83;20324;-65
2021/01/23 01:30:32;;;;;;;;;;;;;;;0.86;86.47;99802.50;1687707;83;22163;-65
2021/01/23 01:32:59;;;;;;;;;;;;;;;0.88;86.52;99805.06;1672843;84;20338;-65
2021/01/23 01:35:27;;;;;;;;;;;;;;;0.91;86.56;99799.70;1713912;83;20218;-65
2021/01/23 01:37:55;;;;;;;;;;;;;;;0.93;86.56;99805.66;1695581;84;20526;-65
2021/01/23 01:40:22;;;;;;;;;;;;;;;0.92;86.57;99797.48;1718375;83;20135;-65
2021/01/23 01:42:51;;;;;;;;;;;;;;;0.95;86.62;99803.82;1678866;84;21861;-64
2021/01/23 01:45:18;;;;;;;;;;;;;;;0.96;86.64;99806.80;1712902;83;20370;-65
2021/01/23 01:47:45;;;;;;;;;;;;;;;0.96;86.65;99798.54;1678070;84;20420;-65
2021/01/23 01:50:16;;;;;;;;;;;;;;;0.98;86.71;99795.89;1665722;85;20274;-65
2021/01/23 01:52:43;;;;;;;;;;;;;;;0.99;86.72;99796.27;1695294;83;20412;-65
2021/01/23 01:55:12;;;;;;;;;;;;;;;0.99;86.74;99788.47;1706127;82;22862;-65
2021/01/23 01:57:39;;;;;;;;;;;;;;;0.99;86.75;99793.20;1705665;84;20365;-65
2021/01/23 02:00:07;;;;;;;;;;;;;;;0.99;86.80;99791.91;1704018;84;20228;-66
2021/01/23 02:02:51;;;;;;;;;;;;;;;1.01;86.87;99788.77;1705915;84;20730;-65
2021/01/23 02:05:39;;;;;;;;;;;;;;;1.02;86.88;99786.55;1711528;83;20230;-65
2021/01/23 02:08:19;;;;;;;;;;;;;;;1.00;86.88;99785.78;1681199;83;22039;-65
2021/01/23 02:11:11;;;;;;;;;;;;;;;1.00;86.91;99795.34;1679684;84;20237;-65
2021/01/23 02:13:42;;;;;;;;;;;;;;;1.00;86.96;99794.05;1677923;84;20223;-65
2021/01/23 02:16:14;;;;;;;;;;;;;;;1.00;86.98;99792.28;1696689;83;20695;-65
2021/01/23 02:18:44;;;;;;;;;;;;;;;1.00;87.00;99794.05;1706018;84;20224;-65
2021/01/23 02:21:30;;;;;;;;;;;;;;;1.00;87.02;99796.19;1704075;84;21920;-65
2021/01/23 02:23:59;;;;;;;;;;;;;;;1.00;87.03;99791.45;1702661;84;20388;-66
2021/01/23 02:26:45;;;;;;;;;;;;;;;1.01;87.05;99790.53;1717084;83;20224;-66
2021/01/23 02:29:23;;;;;;;;;;;;;;;1.01;87.09;99790.06;1708049;83;20833;-67
2021/01/23 02:31:54;;;;;;;;;;;;;;;1.02;87.11;99781.34;1681753;84;37565;-65
2021/01/23 02:34:24;;;;;;;;;;;;;;;1.02;87.13;99781.80;1683030;84;22106;-65
2021/01/23 02:36:52;;;;;;;;;;;;;;;1.02;87.19;99780.05;1678254;84;20235;-65
2021/01/23 02:39:20;;;;;;;;;;;;;;;1.04;87.23;99772.16;1698277;84;20237;-65
2021/01/23 02:41:48;;;;;;;;;;;;;;;1.03;87.24;99773.92;1709792;82;20729;-67
2021/01/23 02:44:15;;;;;;;;;;;;;;;1.03;87.28;99780.42;1706507;84;20387;-65
2021/01/23 02:46:42;;;;;;;;;;;;;;;1.04;87.33;99768.27;1679088;84;22019;-65
2021/01/23 02:49:10;;;;;;;;;;;;;;;1.06;87.37;99775.09;1707524;84;20349;-65
2021/01/23 02:51:47;;;;;;;;;;;;;;;1.07;87.41;99772.87;1712412;83;20232;-65
2021/01/23 02:54:29;;;;;;;;;;;;;;;1.09;87.41;99775.39;1708673;83;20557;-65
2021/01/23 02:56:56;;;;;;;;;;;;;;;1.08;87.46;99768.51;1707993;83;20220;-66
2021/01/23 02:59:24;;;;;;;;;;;;;;;1.08;87.50;99758.95;1717967;83;22097;-66
2021/01/23 03:01:52;;;;;;;;;;;;;;;1.10;87.53;99774.47;1716197;83;20231;-67
2021/01/23 03:04:20;;;;;;;;;;;;;;;1.12;87.59;99768.72;1724430;82;20224;-66
2021/01/23 03:06:48;;;;;;;;;;;;;;;1.11;87.59;99766.59;1724676;82;20542;-66
2021/01/23 03:09:18;;;;;;;;;;;;;;;1.11;87.63;99765.28;1739448;81;20230;-66
2021/01/23 03:11:47;;;;;;;;;;;;;;;1.12;87.63;99765.66;1748071;82;23031;-66
2021/01/23 03:14:14;;;;;;;;;;;;;;;1.13;87.65;99754.80;1741496;81;20271;-66
2021/01/23 03:16:46;;;;;;;;;;;;;;;1.12;87.67;99759.63;1740874;82;20236;-66
2021/01/23 03:19:14;;;;;;;;;;;;;;;1.11;87.71;99766.59;1706539;82;20546;-65
2021/01/23 03:21:43;;;;;;;;;;;;;;;1.11;87.71;99763.98;1748024;82;20297;-65
2021/01/23 03:24:11;;;;;;;;;;;;;;;1.10;87.74;99770.11;1758754;81;21971;-65
2021/01/23 03:26:40;;;;;;;;;;;;;;;1.10;87.73;99786.17;1746951;82;20233;-64
2021/01/23 03:29:07;;;;;;;;;;;;;;;1.09;87.74;99782.73;1748193;82;20226;-64
2021/01/23 03:31:35;;;;;;;;;;;;;;;1.09;87.74;99782.73;1718740;82;22903;-65
2021/01/23 03:34:04;;;;;;;;;;;;;;;1.08;87.75;99783.66;1737378;82;20300;-64
2021/01/23 03:36:32;;;;;;;;;;;;;;;1.08;87.74;99786.25;1737428;82;21921;-65
2021/01/23 03:38:59;;;;;;;;;;;;;;;1.07;87.74;99798.88;1748002;82;20403;-65
2021/01/23 03:41:27;;;;;;;;;;;;;;;1.06;87.75;99799.80;1748039;82;20514;-65
2021/01/23 03:43:54;;;;;;;;;;;;;;;1.06;87.76;99793.72;1759087;81;21584;-65
2021/01/23 03:46:22;;;;;;;;;;;;;;;1.05;87.75;99793.34;1738946;82;20214;-65
2021/01/23 03:48:50;;;;;;;;;;;;;;;1.04;87.76;99792.50;1748035;82;21916;-65
2021/01/23 03:51:18;;;;;;;;;;;;;;;1.04;87.77;99788.61;1735366;82;22533;-67
2021/01/23 03:53:45;;;;;;;;;;;;;;;1.03;87.78;99787.39;1730012;81;20230;-65
2021/01/23 03:56:12;;;;;;;;;;;;;;;1.03;87.79;99784.78;1723153;81;20688;-65
2021/01/23 03:58:41;;;;;;;;;;;;;;;1.02;87.78;99793.05;1739595;82;20235;-64
2021/01/23 04:01:08;;;;;;;;;;;;;;;1.01;87.78;99793.97;1745514;81;24289;-65
2021/01/23 04:03:36;;;;;;;;;;;;;;;1.02;87.81;99801.31;1765723;80;20398;-65
2021/01/23 04:06:04;;;;;;;;;;;;;;;1.01;87.82;99796.56;1765858;81;20568;-65
2021/01/23 04:08:32;;;;;;;;;;;;;;;1.01;87.83;99787.47;1738056;81;20485;-65
2021/01/23 04:10:59;;;;;;;;;;;;;;;1.02;87.84;99795.65;1739122;81;20209;-64
2021/01/23 04:13:27;;;;;;;;;;;;;;;1.02;87.85;99801.31;1712322;81;24299;-65
2021/01/23 04:15:54;;;;;;;;;;;;;;;1.03;87.89;99792.59;1710827;82;21317;-65
2021/01/23 04:18:22;;;;;;;;;;;;;;;1.04;87.92;99791.20;1724210;81;20218;-65
2021/01/23 04:20:50;;;;;;;;;;;;;;;1.06;87.93;99780.72;1739672;81;20672;-66
2021/01/23 04:23:17;;;;;;;;;;;;;;;1.06;87.95;99773.80;1752835;80;20218;-65
2021/01/23 04:25:45;;;;;;;;;;;;;;;1.08;88.01;99770.65;1739405;82;21911;-65
2021/01/23 04:28:15;;;;;;;;;;;;;;;1.10;88.06;99772.70;1736408;82;20265;-65
2021/01/23 04:30:43;;;;;;;;;;;;;;;1.13;88.08;99785.55;1739589;81;20234;-65
2021/01/23 04:33:11;;;;;;;;;;;;;;;1.14;88.11;99782.02;1739503;81;21202;-65
2021/01/23 04:35:40;;;;;;;;;;;;;;;1.14;88.11;99779.42;1739320;82;20520;-65
2021/01/23 04:38:08;;;;;;;;;;;;;;;1.15;88.14;99775.06;1727617;82;21843;-65
2021/01/23 04:40:36;;;;;;;;;;;;;;;1.17;88.18;99781.05;1736683;81;20400;-65
2021/01/23 04:43:04;;;;;;;;;;;;;;;1.18;88.19;99778.83;1751926;81;20273;-65
2021/01/23 04:45:31;;;;;;;;;;;;;;;1.21;88.24;99779.13;1724837;82;20609;-65
2021/01/23 04:47:58;;;;;;;;;;;;;;;1.22;88.26;99773.84;1737638;82;20564;-65
2021/01/23 04:50:26;;;;;;;;;;;;;;;1.21;88.28;99772.63;1737612;82;22065;-65
2021/01/23 04:52:53;;;;;;;;;;;;;;;1.21;88.33;99770.02;1736288;81;20233;-65
2021/01/23 04:55:21;;;;;;;;;;;;;;;1.23;88.38;99766.42;1712835;82;20242;-65
2021/01/23 04:57:48;;;;;;;;;;;;;;;1.25;88.44;99765.88;1708015;82;20527;-64
2021/01/23 05:00:17;;;;;;;;;;;;;;;1.26;88.47;99761.54;1733356;82;20234;-65
2021/01/23 05:02:52;;;;;;;;;;;;;;;1.25;88.48;99752.86;1736628;81;21904;-65
2021/01/23 05:05:19;;;;;;;;;;;;;;;1.26;88.52;99745.47;1733519;82;20354;-65
2021/01/23 05:07:47;;;;;;;;;;;;;;;1.29;88.55;99752.27;1712328;82;20210;-65
2021/01/23 05:10:24;;;;;;;;;;;;;;;1.32;88.60;99761.20;1734734;82;20541;-65
2021/01/23 05:12:53;;;;;;;;;;;;;;;1.36;88.64;99768.80;1736722;82;20226;-65
2021/01/23 05:15:29;;;;;;;;;;;;;;;1.39;88.67;99782.09;1720864;81;21837;-65
2021/01/23 05:18:00;;;;;;;;;;;;;;;1.40;88.71;99786.38;1715362;81;20229;-67
2021/01/23 05:20:33;;;;;;;;;;;;;;;1.42;88.71;99785.84;1736507;82;20226;-65
2021/01/23 05:23:06;;;;;;;;;;;;;;;1.42;88.76;99785.84;1734719;82;20705;-65
2021/01/23 05:25:35;;;;;;;;;;;;;;;1.44;88.78;99795.23;1736644;82;20222;-65
2021/01/23 05:28:04;;;;;;;;;;;;;;;1.44;88.79;99799.60;1722086;82;21895;-65
2021/01/23 05:30:52;;;;;;;;;;;;;;;1.46;88.83;99787.84;1736543;81;20219;-65
2021/01/23 05:33:33;;;;;;;;;;;;;;;1.44;88.82;99786.13;1734756;82;20224;-65
2021/01/23 05:36:05;;;;;;;;;;;;;;;1.46;88.86;99792.58;1736346;82;20683;-65
2021/01/23 05:38:41;;;;;;;;;;;;;;;1.50;88.88;99794.09;1705932;83;20413;-65
2021/01/23 05:41:13;;;;;;;;;;;;;;;1.50;88.90;99798.46;1731239;81;23045;-65
2021/01/23 05:43:47;;;;;;;;;;;;;;;1.49;88.92;99788.98;1719369;82;20386;-65
2021/01/23 05:46:22;;;;;;;;;;;;;;;1.49;88.90;99781.17;1730057;82;20219;-65
2021/01/23 05:48:49;;;;;;;;;;;;;;;1.50;88.92;99787.59;1733413;82;20753;-65
2021/01/23 05:51:17;;;;;;;;;;;;;;;1.52;88.95;99780.54;1734228;82;20229;-66
2021/01/23 05:53:45;;;;;;;;;;;;;;;1.55;88.97;99788.67;1722724;82;22078;-65
2021/01/23 05:56:13;;;;;;;;;;;;;;;1.56;88.99;99774.73;1739489;82;20218;-65
2021/01/23 05:58:42;;;;;;;;;;;;;;;1.57;89.00;99775.11;1733934;81;20222;-65
2021/01/23 06:01:15;;;;;;;;;;;;;;;1.57;88.99;99785.06;1739139;82;20707;-64
2021/01/23 06:03:51;;;;;;;;;;;;;;;1.60;89.00;99797.91;1737521;81;20226;-65
2021/01/23 06:06:18;;;;;;;;;;;;;;;1.60;89.00;99791.86;1710015;84;21911;-65
2021/01/23 06:08:52;;;;;;;;;;;;;;;1.62;89.01;99801.73;1733732;81;20398;-64
2021/01/23 06:11:25;;;;;;;;;;;;;;;1.63;89.03;99809.45;1746815;81;20217;-64
2021/01/23 06:13:55;;;;;;;;;;;;;;;1.64;89.03;99803.78;1760501;81;21573;-65
2021/01/23 06:16:36;;;;;;;;;;;;;;;1.64;89.02;99806.38;1731014;82;20222;-65
2021/01/23 06:19:11;;;;;;;;;;;;;;;1.63;89.03;99806.84;1739461;82;21892;-64
2021/01/23 06:21:48;;;;;;;;;;;;;;;1.63;89.02;99815.95;1739665;81;20218;-64
2021/01/23 06:24:18;;;;;;;;;;;;;;;1.64;89.01;99812.89;1733613;82;20269;-65
2021/01/23 06:26:54;;;;;;;;;;;;;;;1.63;89.01;99804.24;1734206;82;20520;-66
2021/01/23 06:29:38;;;;;;;;;;;;;;;1.64;88.99;99805.09;1707515;82;20220;-65
2021/01/23 06:32:16;;;;;;;;;;;;;;;1.64;88.99;99793.38;1744051;81;22022;-65
2021/01/23 06:34:57;;;;;;;;;;;;;;;1.64;88.99;99799.45;1758287;81;20288;-65
2021/01/23 06:37:30;;;;;;;;;;;;;;;1.65;89.03;99789.88;1731566;82;20466;-66
2021/01/23 06:40:13;;;;;;;;;;;;;;;1.66;89.04;99804.57;1710806;82;20674;-64
2021/01/23 06:42:44;;;;;;;;;;;;;;;1.65;89.02;99813.30;1734263;81;20213;-64
2021/01/23 06:45:23;;;;;;;;;;;;;;;1.64;89.03;99816.37;1739407;81;22521;-65
2021/01/23 06:47:52;;;;;;;;;;;;;;;1.66;89.02;99814.98;1726485;82;20519;-65
2021/01/23 06:50:42;;;;;;;;;;;;;;;1.66;89.03;99817.59;1719941;82;20229;-65
2021/01/23 06:53:20;;;;;;;;;;;;;;;1.68;89.05;99823.55;1752221;81;21575;-65
2021/01/23 06:55:53;;;;;;;;;;;;;;;1.68;89.04;99821.78;1747797;82;20223;-65
2021/01/23 06:58:28;;;;;;;;;;;;;;;1.70;89.07;99821.70;1729112;82;22814;-65
2021/01/23 07:00:57;;;;;;;;;;;;;;;1.70;89.06;99818.64;1733297;80;20222;-66
2021/01/23 07:03:27;;;;;;;;;;;;;;;1.70;89.07;99803.48;1728537;81;20589;-65
2021/01/23 07:06:02;;;;;;;;;;;;;;;1.69;89.08;99814.35;1750104;81;21566;-65
2021/01/23 07:08:36;;;;;;;;;;;;;;;1.68;89.08;99813.98;1745820;82;20230;-66
2021/01/23 07:11:15;;;;;;;;;;;;;;;1.66;89.05;99809.31;1742495;81;22977;-66
2021/01/23 07:14:06;;;;;;;;;;;;;;;1.66;89.06;99803.27;1747773;82;20390;-65
2021/01/23 07:16:36;;;;;;;;;;;;;;;1.64;89.06;99802.05;1723833;82;20217;-66
2021/01/23 07:19:06;;;;;;;;;;;;;;;1.64;89.07;99807.69;1743258;82;20695;-66
2021/01/23 07:21:36;;;;;;;;;;;;;;;1.63;89.06;99819.86;1734122;81;20269;-65
2021/01/23 07:24:04;;;;;;;;;;;;;;;1.64;89.08;99826.78;1744290;82;21966;-65
2021/01/23 07:26:33;;;;;;;;;;;;;;;1.65;89.08;99823.25;1735734;82;20293;-65
2021/01/23 07:29:00;;;;;;;;;;;;;;;1.66;89.07;99817.59;1731968;82;20222;-66
2021/01/23 07:31:31;;;;;;;;;;;;;;;1.66;89.09;99815.82;1738115;81;20537;-66
2021/01/23 07:34:00;;;;;;;;;;;;;;;1.66;89.08;99814.52;1746928;82;20214;-65
2021/01/23 07:36:34;;;;;;;;;;;;;;;1.66;89.08;99817.13;1747912;82;21907;-65
2021/01/23 07:39:07;;;;;;;;;;;;;;;1.66;89.08;99817.13;1738892;80;20377;-65
2021/01/23 07:41:34;;;;;;;;;;;;;;;1.66;89.08;99815.82;1735115;80;20225;-65
2021/01/23 07:44:04;;;;;;;;;;;;;;;1.66;89.07;99809.77;1734606;80;20703;-66
2021/01/23 07:46:39;;;;;;;;;;;;;;;1.66;89.07;99804.57;1736322;82;20225;-65
2021/01/23 07:49:08;;;;;;;;;;;;;;;1.66;89.05;99809.31;1736976;80;22862;-66
2021/01/23 07:51:38;;;;;;;;;;;;;;;1.66;89.04;99814.52;1735968;82;21383;-65
2021/01/23 07:54:10;;;;;;;;;;;;;;;1.65;89.04;99816.75;1679706;83;20283;-66
2021/01/23 07:56:40;;;;;;;;;;;;;;;1.65;89.04;99815.44;1710102;82;20708;-66
2021/01/23 07:59:08;;;;;;;;;;;;;;;1.64;88.99;99816.37;1707582;83;20784;-65
2021/01/23 08:01:35;;;;;;;;;;;;;;;1.63;89.00;99802.94;1707214;82;21336;-65
2021/01/23 08:04:04;;;;;;;;;;;;;;;1.64;88.97;99806.38;1714433;83;20281;-66
2021/01/23 08:06:31;;;;;;;;;;;;;;;1.63;88.98;99817.27;1732317;82;20241;-66
2021/01/23 08:08:59;;;;;;;;;;;;;;;1.62;88.98;99816.05;1715941;82;20682;-65
2021/01/23 08:11:41;;;;;;;;;;;;;;;1.63;88.97;99806.84;1672901;83;20229;-67
2021/01/23 08:14:12;;;;;;;;;;;;;;;1.63;88.96;99817.27;1706732;82;21894;-66
2021/01/23 08:16:51;;;;;;;;;;;;;;;1.65;88.95;99805.49;1715494;82;20236;-66
2021/01/23 08:19:18;;;;;;;;;;;;;;;1.67;88.95;99810.99;1697924;83;20231;-65
2021/01/23 08:22:08;;;;;;;;;;;;;;;1.69;88.95;99809.61;1691305;83;20726;-65
2021/01/23 08:24:43;;;;;;;;;;;;;;;1.76;88.94;99808.84;1887258;75;20171;-66
2021/01/23 08:27:20;;;;;;;;;;;;;;;1.73;88.88;99800.23;1852252;77;20229;-66
2021/01/23 08:29:48;;;;;;;;;;;;;;;1.73;88.88;99800.23;1851583;77;22789;-65
2021/01/23 08:32:16;;;;;;;;;;;;;;;1.75;88.83;99795.44;1849825;77;21080;-66
2021/01/23 08:34:45;;;;;;;;;;;;;;;1.75;88.81;99808.46;1838337;77;20216;-65
2021/01/23 08:37:13;;;;;;;;;;;;;;;1.75;88.74;99802.80;1812578;77;20221;-65
2021/01/23 08:39:46;;;;;;;;;;;;;;;1.75;88.74;99798.89;1842515;77;20201;-67
2021/01/23 08:42:14;;;;;;;;;;;;;;;1.76;88.70;99801.87;1832051;77;21906;-67
2021/01/23 08:44:42;;;;;;;;;;;;;;;1.77;88.69;99794.44;1827565;77;20502;-65
2021/01/23 08:47:09;;;;;;;;;;;;;;;1.77;88.65;99789.69;1845056;77;20234;-65
2021/01/23 08:49:37;;;;;;;;;;;;;;;1.79;88.64;99787.84;1851640;77;20218;-65
2021/01/23 08:52:05;;;;;;;;;;;;;;;1.79;88.61;99783.47;1852435;77;20311;-65
2021/01/23 08:54:32;;;;;;;;;;;;;;;1.80;88.59;99794.27;1833666;77;21894;-65
2021/01/23 08:57:01;;;;;;;;;;;;;;;1.80;88.56;99789.52;1844233;77;20217;-65
2021/01/23 08:59:30;;;;;;;;;;;;;;;1.80;88.53;99781.24;1850241;77;20265;-65
2021/01/23 09:01:57;;;;;;;;;;;;;;;1.83;88.54;99786.28;1851495;77;20300;-65
2021/01/23 09:04:25;;;;;;;;;;;;;;;1.86;88.51;99794.41;1830895;77;20257;-65
2021/01/23 09:06:52;;;;;;;;;;;;;;;1.89;88.49;99789.88;1850241;77;24278;-65
2021/01/23 09:09:19;;;;;;;;;;;;;;;1.91;88.49;99787.18;1826037;77;20356;-66
2021/01/23 09:11:46;;;;;;;;;;;;;;;1.94;88.46;99787.87;1826256;77;20216;-66
2021/01/23 09:14:14;;;;;;;;;;;;;;;1.97;88.43;99784.27;1837470;77;20316;-65
2021/01/23 09:16:41;;;;;;;;;;;;;;;1.98;88.39;99782.88;1828959;77;20205;-65
2021/01/23 09:19:09;;;;;;;;;;;;;;;1.98;88.33;99782.03;1818331;77;22068;-68
2021/01/23 09:21:39;;;;;;;;;;;;;;;1.98;88.31;99779.43;1840709;77;20270;-67
2021/01/23 09:24:09;;;;;;;;;;;;;;;1.99;88.29;99778.50;1822369;77;20207;-67
2021/01/23 09:26:36;;;;;;;;;;;;;;;2.00;88.24;99774.52;1833587;77;20232;-67
2021/01/23 09:29:03;;;;;;;;;;;;;;;2.01;88.23;99773.58;1828539;77;20209;-69
2021/01/23 09:31:31;;;;;;;;;;;;;;;2.04;88.22;99774.36;1804520;77;22131;-67
2021/01/23 09:33:59;;;;;;;;;;;;;;;2.07;88.18;99781.55;1810191;77;20382;-67
2021/01/23 09:36:26;;;;;;;;;;;;;;;2.09;88.14;99782.75;1851817;77;20511;-67
2021/01/23 09:38:54;;;;;;;;;;;;;;;2.08;88.10;99768.89;1825859;77;20207;-68
2021/01/23 09:41:22;;;;;;;;;;;;;;;2.11;88.08;99770.48;1824176;77;20214;-67
2021/01/23 09:43:49;;;;;;;;;;;;;;;2.13;88.06;99772.56;1849845;77;22119;-66
2021/01/23 09:46:18;;;;;;;;;;;;;;;2.12;88.01;99779.52;1834734;77;20285;-67
2021/01/23 09:48:45;;;;;;;;;;;;;;;2.15;87.98;99784.58;1851019;77;20265;-67
2021/01/23 09:51:15;;;;;;;;;;;;;;;2.16;87.93;99786.26;1804452;77;20332;-67
2021/01/23 09:53:43;;;;;;;;;;;;;;;2.14;87.85;99784.20;1815458;77;20208;-67
2021/01/23 09:56:13;;;;;;;;;;;;;;;2.13;87.82;99785.13;1799025;79;21249;-67
2021/01/23 09:58:41;;;;;;;;;;;;;;;2.12;87.73;99782.12;1798888;79;20220;-67
2021/01/23 10:01:08;;;;;;;;;;;;;;;2.13;87.68;99782.98;1800746;77;20219;-67
2021/01/23 10:03:36;;;;;;;;;;;;;;;2.15;87.65;99788.95;1824163;77;20224;-66
2021/01/23 10:06:05;;;;;;;;;;;;;;;2.16;87.60;99792.77;1821457;77;20220;-68
2021/01/23 10:08:33;;;;;;;;;;;;;;;2.18;87.56;99787.01;1850164;77;23027;-69
2021/01/23 10:11:01;;;;;;;;;;;;;;;2.19;87.53;99788.69;1849885;77;20408;-69
2021/01/23 10:13:29;;;;;;;;;;;;;;;2.24;87.50;99781.94;1845602;77;20214;-69
2021/01/23 10:15:57;;;;;;;;;;;;;;;2.26;87.43;99775.71;1839500;77;20218;-71
2021/01/23 10:18:25;;;;;;;;;;;;;;;2.27;87.37;99772.17;1826849;77;20265;-66
2021/01/23 10:20:53;;;;;;;;;;;;;;;2.27;87.30;99760.45;1841658;77;23298;-68
2021/01/23 10:23:21;;;;;;;;;;;;;;;2.29;87.26;99768.18;1819547;77;20361;-68
2021/01/23 10:25:48;;;;;;;;;;;;;;;2.30;87.23;99775.07;1832323;77;20473;-69
2021/01/23 10:28:16;;;;;;;;;;;;;;;2.33;87.15;99774.08;1794147;79;20268;-70
2021/01/23 10:30:44;;;;;;;;;;;;;;;2.32;87.06;99773.67;1784969;80;20221;-69
2021/01/23 10:33:11;;;;;;;;;;;;;;;2.32;87.02;99778.45;1756817;80;22030;-70
2021/01/23 10:35:39;;;;;;;;;;;;;;;2.32;86.95;99776.28;1788113;79;20388;-70
2021/01/23 10:38:07;;;;;;;;;;;;;;;2.32;86.91;99777.59;1787708;80;20278;-69
2021/01/23 10:40:34;;;;;;;;;;;;;;;2.32;86.80;99769.34;1782134;80;20260;-68
2021/01/23 10:43:02;;;;;;;;;;;;;;;2.32;86.74;99764.13;1778472;80;21152;-69
2021/01/23 10:45:30;;;;;;;;;;;;;;;2.34;86.70;99758.83;1781162;80;22811;-69
2021/01/23 10:47:58;;;;;;;;;;;;;;;2.36;86.65;99759.11;1776420;79;20362;-69
2021/01/23 10:50:25;;;;;;;;;;;;;;;2.38;86.63;99760.32;1764011;80;20565;-68
2021/01/23 10:52:53;;;;;;;;;;;;;;;2.41;86.58;99766.19;1760928;80;20292;-70
2021/01/23 10:55:20;;;;;;;;;;;;;;;2.45;86.55;99769.02;1780641;80;20214;-70
2021/01/23 10:57:48;;;;;;;;;;;;;;;2.49;86.52;99766.61;1787506;80;22767;-72
2021/01/23 11:00:17;;;;;;;;;;;;;;;2.53;86.49;99766.84;1793678;80;20309;-69
2021/01/23 11:02:44;;;;;;;;;;;;;;;2.57;86.46;99766.19;1794098;80;20221;-68
2021/01/23 11:05:13;;;;;;;;;;;;;;;2.58;86.38;99767.40;1792950;80;20740;-68
2021/01/23 11:07:42;;;;;;;;;;;;;;;2.59;86.28;99770.38;1771082;80;20265;-68
2021/01/23 11:10:13;;;;;;;;;;;;;;;2.59;86.13;99770.38;1778974;80;20522;-68
2021/01/23 11:12:40;;;;;;;;;;;;;;;2.58;85.99;99771.78;1788723;80;21263;-69
2021/01/23 11:15:09;;;;;;;;;;;;;;;2.57;85.91;99767.49;1791284;80;20265;-70
2021/01/23 11:17:38;;;;;;;;;;;;;;;2.57;85.83;99765.72;1791531;79;20274;-69
2021/01/23 11:20:08;;;;;;;;;;;;;;;2.58;85.75;99766.09;1791121;80;20281;-67
2021/01/23 11:22:36;;;;;;;;;;;;;;;2.57;85.65;99755.76;1763919;80;21895;-68
2021/01/23 11:25:04;;;;;;;;;;;;;;;2.56;85.57;99764.05;1757151;80;21210;-68
2021/01/23 11:27:33;;;;;;;;;;;;;;;2.55;85.54;99761.06;1785720;79;20214;-68
2021/01/23 11:30:01;;;;;;;;;;;;;;;2.55;85.47;99757.62;1795942;79;20259;-69
2021/01/23 11:32:30;;;;;;;;;;;;;;;2.55;85.46;99764.14;1799714;79;20283;-68
2021/01/23 11:34:57;;;;;;;;;;;;;;;2.56;85.43;99773.64;1757834;81;21948;-68
2021/01/23 11:37:25;;;;;;;;;;;;;;;2.54;85.37;99767.67;1787780;80;20232;-68
2021/01/23 11:39:53;;;;;;;;;;;;;;;2.51;85.33;99770.00;1788842;80;20253;-69
2021/01/23 11:42:21;;;;;;;;;;;;;;;2.51;85.32;99763.48;1778633;80;20252;-68
2021/01/23 11:44:48;;;;;;;;;;;;;;;2.52;85.26;99761.25;1788276;80;20270;-68
2021/01/23 11:47:15;;;;;;;;;;;;;;;2.54;85.26;99758.55;1790711;80;23521;-67
2021/01/23 11:49:43;;;;;;;;;;;;;;;2.55;85.24;99749.80;1779463;80;20273;-71
2021/01/23 11:52:11;;;;;;;;;;;;;;;2.56;85.21;99755.38;1793195;80;20559;-69
2021/01/23 11:54:38;;;;;;;;;;;;;;;2.57;85.17;99759.20;1794079;80;20298;-67
2021/01/23 11:57:08;;;;;;;;;;;;;;;2.57;85.13;99751.84;1791437;80;20265;-69
2021/01/23 11:59:36;;;;;;;;;;;;;;;2.56;85.10;99753.62;1782051;80;22053;-68
2021/01/23 12:02:03;;;;;;;;;;;;;;;2.57;85.07;99753.16;1790959;80;20388;-68
2021/01/23 12:04:32;;;;;;;;;;;;;;;2.59;85.03;99760.41;1788217;80;20752;-68
2021/01/23 12:06:59;;;;;;;;;;;;;;;2.56;84.99;99759.30;1785728;80;22439;-68
2021/01/23 12:09:27;;;;;;;;;;;;;;;2.57;84.99;99757.06;1792008;80;20265;-68
2021/01/23 12:11:55;;;;;;;;;;;;;;;2.59;84.95;99755.20;1794428;80;22066;-68
2021/01/23 12:14:22;;;;;;;;;;;;;;;2.59;84.95;99749.98;1793264;80;20543;-68
2021/01/23 12:16:50;;;;;;;;;;;;;;;2.62;84.93;99751.61;1774217;80;20284;-68
2021/01/23 12:19:18;;;;;;;;;;;;;;;2.63;84.94;99754.12;1793050;80;21115;-70
2021/01/23 12:21:45;;;;;;;;;;;;;;;2.65;84.95;99750.13;1793888;80;20257;-70
2021/01/23 12:24:14;;;;;;;;;;;;;;;2.67;84.95;99749.56;1780891;80;21902;-69
2021/01/23 12:26:41;;;;;;;;;;;;;;;2.69;84.96;99744.63;1782177;80;21117;-70
2021/01/23 12:29:10;;;;;;;;;;;;;;;2.72;84.97;99748.85;1768874;80;20269;-69
2021/01/23 12:31:37;;;;;;;;;;;;;;;2.75;84.96;99744.75;1761992;80;21212;-69
2021/01/23 12:34:05;;;;;;;;;;;;;;;2.78;84.96;99745.41;1781361;80;20218;-69
2021/01/23 12:36:33;;;;;;;;;;;;;;;2.81;84.98;99749.16;1771275;80;22383;-70
2021/01/23 12:39:02;;;;;;;;;;;;;;;2.83;84.96;99749.91;1780315;80;20233;-71
2021/01/23 12:41:30;;;;;;;;;;;;;;;2.87;84.96;99757.92;1780815;80;20405;-68
2021/01/23 12:43:57;;;;;;;;;;;;;;;2.90;84.94;99761.31;1778244;80;21345;-69
2021/01/23 12:46:24;;;;;;;;;;;;;;;2.91;84.90;99757.30;1764859;80;20230;-68
2021/01/23 12:48:52;;;;;;;;;;;;;;;2.93;84.89;99763.73;1782213;80;22972;-70
2021/01/23 12:51:19;;;;;;;;;;;;;;;2.94;84.87;99758.42;1778500;80;20385;-69
2021/01/23 12:53:46;;;;;;;;;;;;;;;2.96;84.83;99760.94;1751211;82;20219;-68
2021/01/23 12:56:14;;;;;;;;;;;;;;;2.96;84.82;99761.77;1782008;80;21204;-70
2021/01/23 12:58:41;;;;;;;;;;;;;;;2.99;84.83;99766.84;1751191;81;20271;-68
2021/01/23 13:01:09;;;;;;;;;;;;;;;3.03;84.82;99774.01;1751229;82;23740;-68
2021/01/23 13:03:37;;;;;;;;;;;;;;;3.05;84.79;99772.98;1782066;80;20285;-68
2021/01/23 13:06:05;;;;;;;;;;;;;;;3.07;84.76;99778.10;1755206;81;20288;-68
2021/01/23 13:08:33;;;;;;;;;;;;;;;3.07;84.72;99772.42;1748513;82;20315;-70
2021/01/23 13:11:00;;;;;;;;;;;;;;;3.09;84.72;99770.59;1736526;81;20264;-69